createdAt,value
2018-11-13T00:01:41.804Z,4.00
2018-11-13T00:04:10.307Z,4.60
2018-11-13T00:06:38.606Z,4.67
2018-11-13T00:09:07.624Z,4.43
2018-11-13T00:11:35.969Z,4.80
2018-11-13T00:14:03.998Z,4.23
2018-11-13T00:16:32.073Z,4.37
2018-11-13T00:19:00.150Z,4.67
2018-11-13T00:21:28.154Z,4.70
2018-11-13T00:24:06.736Z,4.63
2018-11-13T00:26:34.710Z,4.40
2018-11-13T00:29:02.726Z,4.33
2018-11-13T00:31:30.751Z,4.33
2018-11-13T00:33:58.797Z,4.30
2018-11-13T00:36:26.928Z,4.53
2018-11-13T00:38:55.292Z,4.43
2018-11-13T00:41:23.478Z,3.73
2018-11-13T00:43:51.457Z,4.30
2018-11-13T00:46:19.486Z,3.97
2018-11-13T00:48:47.590Z,3.63
2018-11-13T00:51:15.637Z,4.37
2018-11-13T00:53:43.727Z,4.43
2018-11-13T00:56:11.865Z,4.40
2018-11-13T00:58:39.914Z,4.73
2018-11-13T01:01:07.950Z,4.57
2018-11-13T01:03:36.051Z,4.47
2018-11-13T01:06:04.181Z,4.57
2018-11-13T01:08:32.310Z,4.80
2018-11-13T01:11:00.377Z,4.30
2018-11-13T01:13:28.889Z,4.77
2018-11-13T01:15:56.473Z,5.07
2018-11-13T01:18:24.691Z,4.80
2018-11-13T01:20:52.698Z,4.47
2018-11-13T01:23:20.797Z,4.83
2018-11-13T01:25:48.841Z,4.50
2018-11-13T01:28:16.934Z,4.60
2018-11-13T01:30:45.028Z,4.03
2018-11-13T01:33:13.134Z,3.80
2018-11-13T01:35:41.292Z,3.80
2018-11-13T01:38:09.349Z,3.40
2018-11-13T01:40:37.398Z,3.80
2018-11-13T01:43:05.504Z,3.63
2018-11-13T01:45:33.617Z,3.50
2018-11-13T01:48:01.718Z,3.43
2018-11-13T01:50:29.793Z,3.57
2018-11-13T01:52:57.986Z,3.60
2018-11-13T01:55:26.090Z,3.17
2018-11-13T01:57:54.165Z,3.30
2018-11-13T02:00:23.108Z,3.13
2018-11-13T02:02:55.241Z,3.40
2018-11-13T02:05:24.427Z,3.30
2018-11-13T02:07:53.097Z,3.40
2018-11-13T02:10:21.296Z,3.40
2018-11-13T02:12:59.362Z,3.97
2018-11-13T02:15:27.499Z,3.77
2018-11-13T02:17:55.631Z,3.97
2018-11-13T02:20:23.732Z,3.37
2018-11-13T02:22:51.811Z,3.70
2018-11-13T02:25:20.599Z,3.50
2018-11-13T02:27:49.272Z,3.77
2018-11-13T02:30:19.743Z,3.80
2018-11-13T02:32:48.272Z,4.20
2018-11-13T02:35:16.653Z,4.17
2018-11-13T02:37:44.783Z,3.90
2018-11-13T02:40:12.951Z,3.90
2018-11-13T02:42:41.059Z,4.30
2018-11-13T02:45:09.970Z,3.93
2018-11-13T02:47:38.142Z,4.30
2018-11-13T02:50:08.394Z,4.63
2018-11-13T02:52:36.793Z,4.07
2018-11-13T02:55:04.949Z,4.37
2018-11-13T02:57:33.236Z,3.80
2018-11-13T03:00:01.317Z,4.03
2018-11-13T03:02:29.794Z,4.30
2018-11-13T03:05:06.473Z,4.13
2018-11-13T03:07:34.589Z,4.07
2018-11-13T03:10:02.819Z,3.87
2018-11-13T03:12:30.883Z,4.13
2018-11-13T03:14:59.011Z,4.23
2018-11-13T03:17:27.225Z,3.97
2018-11-13T03:19:55.292Z,3.63
2018-11-13T03:22:23.388Z,3.60
2018-11-13T03:24:51.431Z,3.30
2018-11-13T03:27:19.488Z,3.57
2018-11-13T03:29:47.540Z,4.30
2018-11-13T03:32:15.561Z,3.93
2018-11-13T03:34:43.684Z,4.10
2018-11-13T03:37:11.833Z,3.90
2018-11-13T03:39:39.954Z,4.20
2018-11-13T03:42:08.029Z,3.70
2018-11-13T03:44:41.558Z,4.13
2018-11-13T03:47:10.285Z,4.30
2018-11-13T03:49:38.279Z,4.37
2018-11-13T03:52:06.396Z,4.70
2018-11-13T03:54:34.449Z,4.63
2018-11-13T03:57:02.503Z,4.60
2018-11-13T03:59:30.571Z,4.70
2018-11-13T04:01:58.626Z,5.20
2018-11-13T04:04:26.669Z,4.57
2018-11-13T04:06:59.452Z,4.10
2018-11-13T04:09:27.494Z,4.03
2018-11-13T04:11:55.876Z,3.40
2018-11-13T04:14:23.926Z,3.80
2018-11-13T04:16:51.989Z,2.80
2018-11-13T04:19:20.029Z,2.80
2018-11-13T04:21:59.245Z,2.50
2018-11-13T04:24:27.281Z,2.60
2018-11-13T04:26:56.458Z,2.20
2018-11-13T04:29:24.578Z,1.90
2018-11-13T04:31:52.669Z,2.17
2018-11-13T04:34:20.783Z,1.97
2018-11-13T04:36:48.867Z,2.10
2018-11-13T04:39:17.277Z,1.93
2018-11-13T04:41:45.318Z,2.00
2018-11-13T04:44:13.359Z,2.07
2018-11-13T04:46:41.336Z,2.10
2018-11-13T04:49:09.365Z,2.10
2018-11-13T04:51:37.436Z,2.30
2018-11-13T04:54:05.515Z,2.80
2018-11-13T04:56:45.667Z,3.00
2018-11-13T04:59:13.714Z,3.10
2018-11-13T05:01:41.800Z,3.23
2018-11-13T05:04:09.926Z,3.93
2018-11-13T05:06:37.983Z,3.67
2018-11-13T05:09:06.355Z,4.03
2018-11-13T05:11:34.470Z,4.53
2018-11-13T05:14:02.622Z,4.37
2018-11-13T05:16:30.725Z,4.47
2018-11-13T05:18:58.818Z,4.30
2018-11-13T05:21:26.938Z,4.50
2018-11-13T05:23:54.988Z,4.23
2018-11-13T05:26:28.261Z,4.50
2018-11-13T05:28:56.350Z,4.50
2018-11-13T05:31:24.610Z,4.70
2018-11-13T05:33:52.661Z,4.67
2018-11-13T05:36:20.889Z,4.80
2018-11-13T05:38:52.141Z,4.70
2018-11-13T05:41:20.295Z,4.13
2018-11-13T05:43:48.386Z,3.63
2018-11-13T05:46:16.439Z,3.43
2018-11-13T05:48:45.657Z,3.50
2018-11-13T05:51:17.257Z,3.17
2018-11-13T05:53:45.923Z,3.70
2018-11-13T05:56:14.180Z,3.53
2018-11-13T05:58:46.228Z,4.07
2018-11-13T06:01:14.624Z,4.40
2018-11-13T06:03:42.979Z,3.87
2018-11-13T06:06:21.866Z,4.17
2018-11-13T06:08:50.074Z,3.90
2018-11-13T06:11:18.369Z,3.80
2018-11-13T06:13:46.859Z,3.80
2018-11-13T06:16:15.089Z,3.50
2018-11-13T06:25:04.598Z,3.67
2018-11-13T06:27:37.990Z,3.57
2018-11-13T06:30:18.805Z,2.97
2018-11-13T06:32:49.311Z,3.03
2018-11-13T06:35:17.561Z,2.80
2018-11-13T06:37:46.347Z,2.40
2018-11-13T06:40:15.683Z,2.30
2018-11-13T06:42:45.541Z,2.30
2018-11-13T06:45:18.497Z,2.10
2018-11-13T06:47:47.833Z,2.10
2018-11-13T06:50:22.566Z,1.90
2018-11-13T06:52:52.200Z,2.00
2018-11-13T06:55:34.272Z,2.33
2018-11-13T06:58:19.335Z,2.50
2018-11-13T07:01:05.810Z,2.63
2018-11-13T07:03:46.544Z,2.70
2018-11-13T07:09:14.562Z,2.40
2018-11-13T07:11:48.636Z,2.30
2018-11-13T07:14:21.377Z,2.73
2018-11-13T07:25:35.531Z,2.80
2018-11-13T07:29:05.924Z,2.73
2018-11-13T07:31:50.699Z,2.97
2018-11-13T08:01:35.774Z,1.90
2018-11-13T08:04:09.736Z,1.90
2018-11-13T08:06:38.160Z,2.13
2018-11-13T08:09:07.895Z,2.00
2018-11-13T08:11:37.520Z,2.00
2018-11-13T08:14:07.479Z,2.00
2018-11-13T08:16:35.731Z,2.27
2018-11-13T08:19:03.887Z,1.80
2018-11-13T08:21:31.995Z,1.67
2018-11-13T08:24:00.307Z,1.67
2018-11-13T08:26:34.785Z,1.80
2018-11-13T08:29:03.093Z,1.70
2018-11-13T08:31:31.177Z,1.50
2018-11-13T08:33:59.325Z,2.63
2018-11-13T08:36:27.205Z,1.90
2018-11-13T08:38:55.302Z,1.90
2018-11-13T08:41:23.437Z,2.03
2018-11-13T08:43:51.641Z,1.93
2018-11-13T08:46:19.713Z,1.63
2018-11-13T09:17:19.192Z,1.33
2018-11-13T09:22:52.916Z,1.50
2018-11-13T09:25:29.774Z,1.90
2018-11-13T09:28:06.320Z,1.70
2018-11-13T09:30:45.473Z,1.47
2018-11-13T09:33:15.332Z,1.80
2018-11-13T09:35:49.859Z,1.50
2018-11-13T09:51:58.990Z,1.67
2018-11-13T09:54:28.411Z,1.73
2018-11-13T09:56:56.684Z,2.50
2018-11-13T09:59:24.920Z,1.90
2018-11-13T10:01:54.533Z,3.00
2018-11-13T10:04:25.995Z,1.70
2018-11-13T10:06:55.718Z,1.43
2018-11-13T10:09:24.903Z,1.00
2018-11-13T10:11:53.553Z,1.13
2018-11-13T10:14:21.958Z,1.23
2018-11-13T10:16:50.729Z,1.20
2018-11-13T10:19:19.146Z,1.17
2018-11-13T10:21:48.958Z,1.37
2018-11-13T10:24:17.111Z,1.00
2018-11-13T10:26:45.481Z,1.33
2018-11-13T10:29:15.563Z,1.40
2018-11-13T10:31:43.656Z,1.03
2018-11-13T10:34:11.892Z,0.83
2018-11-13T10:36:41.978Z,1.10
2018-11-13T10:39:10.963Z,1.10
2018-11-13T10:41:49.329Z,0.80
2018-11-13T10:44:17.549Z,0.80
2018-11-13T10:46:45.775Z,1.20
2018-11-13T10:49:14.215Z,1.00
2018-11-13T10:51:48.906Z,0.67
2018-11-13T10:54:16.963Z,0.80
2018-11-13T10:56:45.093Z,0.80
2018-11-13T10:59:13.164Z,0.67
2018-11-13T11:01:46.696Z,0.77
2018-11-13T11:04:25.223Z,0.70
2018-11-13T11:06:53.382Z,0.70
2018-11-13T11:09:25.028Z,0.77
2018-11-13T11:11:53.324Z,1.30
2018-11-13T11:14:21.477Z,0.83
2018-11-13T11:16:49.632Z,1.00
2018-11-13T11:19:19.207Z,1.07
2018-11-13T11:21:47.233Z,0.70
2018-11-13T11:24:33.554Z,0.80
2018-11-13T11:27:01.653Z,0.90
2018-11-13T11:29:29.804Z,0.70
2018-11-13T11:31:58.990Z,0.77
2018-11-13T11:34:27.050Z,0.77
2018-11-13T11:37:01.540Z,0.80
2018-11-13T11:39:29.627Z,0.77
2018-11-13T11:42:01.779Z,0.80
2018-11-13T11:44:30.125Z,0.90
2018-11-13T11:46:58.080Z,1.00
2018-11-13T11:49:26.494Z,0.87
2018-11-13T11:52:00.208Z,0.73
2018-11-13T11:54:31.928Z,0.70
2018-11-13T11:57:00.154Z,1.00
2018-11-13T11:59:32.647Z,0.77
2018-11-13T12:02:00.679Z,0.77
2018-11-13T12:04:30.752Z,1.23
2018-11-13T12:06:58.893Z,0.70
2018-11-13T12:09:32.505Z,0.90
2018-11-13T12:12:00.585Z,1.00
2018-11-13T12:14:28.842Z,0.80
2018-11-13T12:16:57.009Z,0.80
2018-11-13T12:19:25.136Z,0.97
2018-11-13T12:21:53.198Z,0.80
2018-11-13T12:24:21.331Z,0.70
2018-11-13T12:26:49.439Z,0.50
2018-11-13T12:29:17.504Z,0.87
2018-11-13T12:31:46.374Z,1.13
2018-11-13T12:34:14.550Z,0.80
2018-11-13T12:36:42.680Z,0.90
2018-11-13T12:39:15.384Z,0.80
2018-11-13T12:41:44.118Z,0.77
2018-11-13T12:44:12.196Z,0.80
2018-11-13T12:46:40.335Z,1.00
2018-11-13T12:49:09.557Z,0.90
2018-11-13T12:51:46.783Z,0.90
2018-11-13T12:54:15.093Z,0.80
2018-11-13T12:56:43.124Z,1.10
2018-11-13T12:59:11.169Z,1.00
2018-11-13T13:01:39.206Z,0.90
2018-11-13T13:04:07.278Z,1.20
2018-11-13T13:06:47.365Z,0.90
2018-11-13T13:09:15.489Z,1.10
2018-11-13T13:11:44.873Z,1.10
2018-11-13T13:14:14.879Z,0.90
2018-11-13T13:16:43.247Z,1.40
2018-11-13T13:19:11.316Z,0.83
2018-11-13T13:21:39.355Z,1.20
2018-11-13T13:24:07.681Z,1.40
2018-11-13T13:26:36.099Z,1.37
2018-11-13T13:29:04.222Z,1.17
2018-11-13T13:31:32.317Z,1.10
2018-11-13T13:34:01.423Z,1.00
2018-11-13T13:36:29.559Z,1.10
2018-11-13T13:38:57.737Z,1.10
2018-11-13T13:41:30.187Z,1.13
2018-11-13T13:43:58.238Z,1.10
2018-11-13T13:46:26.498Z,1.10
2018-11-13T13:48:54.566Z,1.20
2018-11-13T13:51:22.633Z,1.17
2018-11-13T13:53:50.928Z,1.40
2018-11-13T13:56:18.857Z,1.27
2018-11-13T13:58:46.956Z,1.30
2018-11-13T14:01:18.592Z,1.17
2018-11-13T14:03:49.124Z,1.07
2018-11-13T14:06:17.186Z,1.60
2018-11-13T14:08:45.265Z,1.20
2018-11-13T14:11:13.331Z,1.10
2018-11-13T14:13:42.530Z,1.10
2018-11-13T14:16:10.718Z,1.63
2018-11-13T14:18:38.963Z,1.27
2018-11-13T14:21:07.144Z,1.30
2018-11-13T14:23:38.266Z,1.33
2018-11-13T14:26:06.338Z,1.60
2018-11-13T14:28:46.086Z,1.30
2018-11-13T14:31:18.429Z,4.10
2018-11-13T14:33:50.501Z,2.70
2018-11-13T14:36:18.648Z,1.87
2018-11-13T14:38:46.754Z,1.47
2018-11-13T14:41:14.912Z,1.63
2018-11-13T14:43:44.048Z,1.37
2018-11-13T14:46:12.230Z,1.43
2018-11-13T14:48:50.173Z,1.70
2018-11-13T14:51:18.517Z,1.33
2018-11-13T14:53:46.616Z,1.13
2018-11-13T14:56:17.242Z,1.93
2018-11-13T14:58:46.824Z,1.37
2018-11-13T15:01:18.982Z,1.30
2018-11-13T15:03:47.464Z,1.30
2018-11-13T15:06:16.253Z,1.70
2018-11-13T15:08:59.777Z,1.40
2018-11-13T15:11:30.842Z,1.30
2018-11-13T15:14:05.292Z,1.63
2018-11-13T15:16:33.895Z,2.10
2018-11-13T15:19:02.258Z,1.67
2018-11-13T15:21:30.477Z,1.57
2018-11-13T15:24:00.068Z,1.67
2018-11-13T15:26:30.500Z,2.20
2018-11-13T15:28:59.713Z,1.63
2018-11-13T15:31:27.958Z,1.43
2018-11-13T15:33:59.771Z,2.30
2018-11-13T15:36:28.920Z,1.90
2018-11-13T15:38:57.023Z,2.30
2018-11-13T15:41:25.133Z,2.00
2018-11-13T15:43:59.729Z,2.93
2018-11-13T15:46:27.986Z,2.17
2018-11-13T15:48:56.074Z,2.40
2018-11-13T15:51:30.537Z,1.90
2018-11-13T15:54:00.552Z,2.03
2018-11-13T15:56:28.676Z,1.80
2018-11-13T15:58:57.146Z,1.90
2018-11-13T16:01:25.254Z,1.97
2018-11-13T16:03:53.297Z,1.93
2018-11-13T16:06:28.464Z,2.20
2018-11-13T16:08:56.508Z,2.00
2018-11-13T16:11:24.647Z,2.00
2018-11-13T16:13:52.788Z,1.60
2018-11-13T16:16:20.841Z,2.00
2018-11-13T16:18:48.953Z,1.90
2018-11-13T16:21:17.550Z,2.23
2018-11-13T16:23:45.602Z,2.20
2018-11-13T16:26:13.693Z,2.20
2018-11-13T16:28:41.848Z,2.30
2018-11-13T16:31:11.822Z,1.90
2018-11-13T16:33:51.019Z,2.40
2018-11-13T16:36:19.083Z,2.03
2018-11-13T16:38:47.248Z,1.97
2018-11-13T16:41:17.559Z,3.70
2018-11-13T16:43:45.573Z,2.30
2018-11-13T16:46:13.589Z,3.20
2018-11-13T16:48:41.744Z,2.40
2018-11-13T16:51:09.851Z,2.70
2018-11-13T16:53:44.431Z,2.13
2018-11-13T16:56:12.474Z,2.20
2018-11-13T16:58:40.481Z,2.10
2018-11-13T17:01:12.439Z,2.73
2018-11-13T17:03:40.606Z,2.60
2018-11-13T17:06:08.776Z,2.90
2018-11-13T17:08:36.767Z,2.80
2018-11-13T17:11:04.805Z,2.30
2018-11-13T17:13:32.853Z,2.70
2018-11-13T17:16:00.877Z,2.37
2018-11-13T17:18:29.063Z,2.30
2018-11-13T17:20:57.277Z,2.13
2018-11-13T17:23:25.445Z,2.37
2018-11-13T17:25:53.565Z,2.60
2018-11-13T17:28:33.538Z,2.57
2018-11-13T17:31:01.670Z,2.53
2018-11-13T17:33:29.776Z,2.20
2018-11-13T17:35:57.833Z,2.80
2018-11-13T17:38:26.011Z,2.50
2018-11-13T17:40:54.139Z,2.73
2018-11-13T17:43:22.199Z,3.00
2018-11-13T17:45:50.266Z,2.53
2018-11-13T17:48:18.301Z,2.57
2018-11-13T17:50:46.416Z,2.73
2018-11-13T17:53:15.179Z,2.40
2018-11-13T17:55:43.250Z,3.77
2018-11-13T17:58:12.464Z,3.20
2018-11-13T18:00:43.696Z,2.80
2018-11-13T18:03:12.571Z,2.90
2018-11-13T18:05:43.116Z,3.23
2018-11-13T18:08:11.703Z,3.40
2018-11-13T18:10:41.126Z,3.53
2018-11-13T18:13:09.415Z,3.63
2018-11-13T18:15:37.774Z,3.47
2018-11-13T18:18:06.675Z,3.83
2018-11-13T18:20:36.118Z,3.37
2018-11-13T18:23:04.322Z,3.33
2018-11-13T18:25:32.590Z,3.50
2018-11-13T18:28:02.246Z,3.30
2018-11-13T18:30:31.126Z,3.20
2018-11-13T18:33:00.077Z,3.10
2018-11-13T18:35:29.544Z,2.87
2018-11-13T18:37:58.661Z,2.87
2018-11-13T18:40:27.023Z,3.27
2018-11-13T18:42:55.677Z,3.10
2018-11-13T18:45:25.628Z,3.00
2018-11-13T18:47:53.680Z,2.90
2018-11-13T18:50:24.281Z,2.80
2018-11-13T18:52:52.589Z,2.50
2018-11-13T18:55:21.587Z,3.03
2018-11-13T18:57:51.074Z,2.70
2018-11-13T19:00:25.200Z,2.60
2018-11-13T19:02:53.334Z,2.87
2018-11-13T19:05:21.756Z,2.67
2018-11-13T19:07:49.917Z,3.00
2018-11-13T19:10:49.843Z,2.83
2018-11-13T19:13:23.487Z,3.00
2018-11-13T19:15:52.472Z,2.93
2018-11-13T19:18:21.296Z,2.87
2018-11-13T19:20:49.552Z,2.90
2018-11-13T19:23:20.317Z,3.27
2018-11-13T19:25:48.389Z,3.33
2018-11-13T19:28:16.448Z,2.97
2018-11-13T19:30:46.521Z,3.40
2018-11-13T19:33:14.688Z,3.27
2018-11-13T19:35:43.059Z,3.87
2018-11-13T19:38:10.966Z,3.57
2018-11-13T19:40:39.161Z,3.63
2018-11-13T19:43:08.346Z,4.07
2018-11-13T19:45:36.526Z,6.03
2018-11-13T19:48:09.562Z,5.70
2018-11-13T19:50:38.076Z,4.03
2018-11-13T19:53:06.186Z,3.40
2018-11-13T19:55:34.776Z,4.77
2018-11-13T19:58:02.878Z,3.60
2018-11-13T20:00:32.212Z,3.77
2018-11-13T20:03:01.692Z,4.00
2018-11-13T20:05:30.347Z,3.47
2018-11-13T20:07:58.447Z,4.10
2018-11-13T20:10:27.948Z,3.33
2018-11-13T20:12:57.199Z,3.53
2018-11-13T20:15:26.183Z,4.03
2018-11-13T20:17:54.228Z,3.53
2018-11-13T20:20:23.626Z,3.50
2018-11-13T20:22:52.369Z,3.80
2018-11-13T20:25:21.973Z,3.50
2018-11-13T20:27:50.019Z,3.60
2018-11-13T20:30:22.369Z,3.27
2018-11-13T20:32:50.521Z,4.03
2018-11-13T20:35:21.898Z,3.17
2018-11-13T20:37:50.854Z,3.33
2018-11-13T20:40:23.549Z,2.90
2018-11-13T20:42:53.785Z,2.80
2018-11-13T20:45:21.975Z,3.33
2018-11-13T20:47:50.034Z,2.97
2018-11-13T20:50:24.153Z,3.37
2018-11-13T20:52:52.506Z,2.73
2018-11-13T20:55:30.938Z,2.93
2018-11-13T20:58:03.545Z,3.00
2018-11-13T21:00:32.740Z,3.27
2018-11-13T21:03:08.429Z,3.40
2018-11-13T21:05:36.317Z,3.13
2018-11-13T21:08:09.885Z,3.30
2018-11-13T21:10:39.005Z,3.03
2018-11-13T21:13:09.045Z,3.20
2018-11-13T21:15:39.377Z,2.90
2018-11-13T21:18:07.509Z,3.00
2018-11-13T21:20:37.613Z,3.10
2018-11-13T21:23:07.110Z,3.03
2018-11-13T21:25:36.057Z,3.33
2018-11-13T21:28:04.782Z,3.10
2018-11-13T21:30:35.834Z,3.13
2018-11-13T21:33:05.779Z,3.30
2018-11-13T21:35:34.015Z,3.00
2018-11-13T21:38:03.053Z,3.53
2018-11-13T21:40:31.164Z,3.10
2018-11-13T21:42:59.359Z,3.20
2018-11-13T21:45:28.367Z,2.83
2018-11-13T21:47:56.453Z,2.80
2018-11-13T21:50:25.990Z,3.47
2018-11-13T21:52:55.620Z,3.33
2018-11-13T21:55:24.790Z,3.50
2018-11-13T21:57:52.859Z,4.13
2018-11-13T22:00:23.335Z,3.67
2018-11-13T22:02:54.417Z,3.80
2018-11-13T22:05:27.306Z,3.40
2018-11-13T22:07:55.382Z,3.50
2018-11-13T22:10:23.485Z,3.50
2018-11-13T22:12:52.566Z,3.27
2018-11-13T22:15:22.068Z,3.40
2018-11-13T22:17:50.221Z,3.07
2018-11-13T22:20:18.894Z,3.33
2018-11-13T22:22:47.342Z,3.53
2018-11-13T22:25:17.031Z,3.93
2018-11-13T22:27:46.465Z,3.73
2018-11-13T22:30:17.354Z,3.37
2018-11-13T22:32:45.864Z,3.60
2018-11-13T22:35:14.509Z,3.70
2018-11-13T22:37:42.921Z,3.47
2018-11-13T22:40:14.515Z,3.37
2018-11-13T22:42:42.555Z,3.93
2018-11-13T22:45:12.892Z,4.17
2018-11-13T22:47:41.151Z,3.47
2018-11-13T22:50:13.065Z,4.20
2018-11-13T22:52:41.800Z,3.87
2018-11-13T22:55:10.706Z,3.70
2018-11-13T22:57:38.833Z,3.97
2018-11-13T23:00:11.236Z,3.67
2018-11-13T23:02:39.174Z,3.67
2018-11-13T23:05:07.432Z,4.03
2018-11-13T23:07:35.673Z,3.80
2018-11-13T23:10:03.725Z,4.03
2018-11-13T23:12:31.894Z,3.97
2018-11-13T23:15:00.009Z,4.13
2018-11-13T23:17:37.965Z,4.33
2018-11-13T23:20:06.878Z,4.20
2018-11-13T23:22:35.138Z,3.83
2018-11-13T23:25:03.538Z,3.77
2018-11-13T23:27:31.590Z,3.90
2018-11-13T23:29:59.754Z,4.10
2018-11-13T23:32:27.815Z,4.50
2018-11-13T23:34:55.933Z,4.40
2018-11-13T23:37:23.977Z,4.03
2018-11-13T23:39:52.030Z,4.73
2018-11-13T23:42:20.170Z,4.50
2018-11-13T23:44:48.177Z,4.30
2018-11-13T23:47:16.491Z,4.60
2018-11-13T23:49:44.594Z,4.47
2018-11-13T23:52:12.987Z,4.63
2018-11-13T23:54:40.730Z,4.73
2018-11-13T23:57:08.797Z,5.17
2018-11-13T23:59:36.886Z,4.70
